sensor_id;sensor_type;location;lat;lon;timestamp;P1;durP1;ratioP1;P2;durP2;ratioP2
76953;SDS011;65893;51.698;-0.292;2023-09-07T00:00:44;33.63;;;20.05;;
76953;SDS011;65893;51.698;-0.292;2023-09-07T00:03:12;37.58;;;22.40;;
76953;SDS011;65893;51.698;-0.292;2023-09-07T00:05:40;34.75;;;22.40;;
76953;SDS011;65893;51.698;-0.292;2023-09-07T00:08:06;30.63;;;20.33;;
76953;SDS011;65893;51.698;-0.292;2023-09-07T00:10:32;32.75;;;21.83;;
76953;SDS011;65893;51.698;-0.292;2023-09-07T00:13:04;36.97;;;22.60;;
76953;SDS011;65893;51.698;-0.292;2023-09-07T00:15:30;35.45;;;22.98;;
76953;SDS011;65893;51.698;-0.292;2023-09-07T00:18:00;34.85;;;23.30;;
76953;SDS011;65893;51.698;-0.292;2023-09-07T00:20:30;32.05;;;21.50;;
76953;SDS011;65893;51.698;-0.292;2023-09-07T00:22:56;38.72;;;24.73;;
76953;SDS011;65893;51.698;-0.292;2023-09-07T00:25:22;43.65;;;25.88;;
76953;SDS011;65893;51.698;-0.292;2023-09-07T00:27:48;42.47;;;26.80;;
76953;SDS011;65893;51.698;-0.292;2023-09-07T00:30:14;39.53;;;25.15;;
76953;SDS011;65893;51.698;-0.292;2023-09-07T00:32:41;37.67;;;24.77;;
76953;SDS011;65893;51.698;-0.292;2023-09-07T00:35:08;39.03;;;25.25;;
76953;SDS011;65893;51.698;-0.292;2023-09-07T00:37:36;41.75;;;26.67;;
76953;SDS011;65893;51.698;-0.292;2023-09-07T00:40:03;44.08;;;28.55;;
76953;SDS011;65893;51.698;-0.292;2023-09-07T00:42:33;43.97;;;27.88;;
76953;SDS011;65893;51.698;-0.292;2023-09-07T00:44:59;45.65;;;27.50;;
76953;SDS011;65893;51.698;-0.292;2023-09-07T00:47:26;47.88;;;30.52;;
76953;SDS011;65893;51.698;-0.292;2023-09-07T00:49:52;47.50;;;29.10;;
76953;SDS011;65893;51.698;-0.292;2023-09-07T00:52:18;42.35;;;27.58;;
76953;SDS011;65893;51.698;-0.292;2023-09-07T00:54:44;43.28;;;28.85;;
76953;SDS011;65893;51.698;-0.292;2023-09-07T00:57:10;44.58;;;28.77;;
76953;SDS011;65893;51.698;-0.292;2023-09-07T00:59:37;47.25;;;28.02;;
76953;SDS011;65893;51.698;-0.292;2023-09-07T01:02:03;47.45;;;27.67;;
76953;SDS011;65893;51.698;-0.292;2023-09-07T01:04:31;47.55;;;29.65;;
76953;SDS011;65893;51.698;-0.292;2023-09-07T01:07:02;51.78;;;29.17;;
76953;SDS011;65893;51.698;-0.292;2023-09-07T01:09:30;53.53;;;31.25;;
76953;SDS011;65893;51.698;-0.292;2023-09-07T01:11:56;51.47;;;30.73;;
76953;SDS011;65893;51.698;-0.292;2023-09-07T01:14:22;53.75;;;31.58;;
76953;SDS011;65893;51.698;-0.292;2023-09-07T01:16:50;48.95;;;27.30;;
76953;SDS011;65893;51.698;-0.292;2023-09-07T01:19:17;54.33;;;31.05;;
76953;SDS011;65893;51.698;-0.292;2023-09-07T01:21:45;47.38;;;30.77;;
76953;SDS011;65893;51.698;-0.292;2023-09-07T01:24:12;46.67;;;29.42;;
76953;SDS011;65893;51.698;-0.292;2023-09-07T01:26:43;51.08;;;31.77;;
76953;SDS011;65893;51.698;-0.292;2023-09-07T01:29:15;49.60;;;32.25;;
76953;SDS011;65893;51.698;-0.292;2023-09-07T01:31:44;50.72;;;33.00;;
76953;SDS011;65893;51.698;-0.292;2023-09-07T01:34:11;55.33;;;32.67;;
76953;SDS011;65893;51.698;-0.292;2023-09-07T01:36:41;59.78;;;31.73;;
76953;SDS011;65893;51.698;-0.292;2023-09-07T01:39:08;51.83;;;33.28;;
76953;SDS011;65893;51.698;-0.292;2023-09-07T01:41:35;59.92;;;34.50;;
76953;SDS011;65893;51.698;-0.292;2023-09-07T01:44:03;51.97;;;33.20;;
76953;SDS011;65893;51.698;-0.292;2023-09-07T01:46:29;51.53;;;33.33;;
76953;SDS011;65893;51.698;-0.292;2023-09-07T01:48:55;52.83;;;30.73;;
76953;SDS011;65893;51.698;-0.292;2023-09-07T01:51:21;51.67;;;34.28;;
76953;SDS011;65893;51.698;-0.292;2023-09-07T01:53:49;52.92;;;32.15;;
76953;SDS011;65893;51.698;-0.292;2023-09-07T01:56:18;54.53;;;30.98;;
76953;SDS011;65893;51.698;-0.292;2023-09-07T01:58:44;47.92;;;32.38;;
76953;SDS011;65893;51.698;-0.292;2023-09-07T02:01:26;45.95;;;28.98;;
76953;SDS011;65893;51.698;-0.292;2023-09-07T02:03:54;49.10;;;29.67;;
76953;SDS011;65893;51.698;-0.292;2023-09-07T02:06:21;48.35;;;30.77;;
76953;SDS011;65893;51.698;-0.292;2023-09-07T02:08:48;46.00;;;28.40;;
76953;SDS011;65893;51.698;-0.292;2023-09-07T02:11:14;47.22;;;29.80;;
76953;SDS011;65893;51.698;-0.292;2023-09-07T02:13:44;48.42;;;29.58;;
76953;SDS011;65893;51.698;-0.292;2023-09-07T02:16:10;45.83;;;28.73;;
76953;SDS011;65893;51.698;-0.292;2023-09-07T02:18:42;45.35;;;30.73;;
76953;SDS011;65893;51.698;-0.292;2023-09-07T02:21:10;50.25;;;29.67;;
76953;SDS011;65893;51.698;-0.292;2023-09-07T02:23:38;57.63;;;29.58;;
76953;SDS011;65893;51.698;-0.292;2023-09-07T02:26:05;50.88;;;31.08;;
76953;SDS011;65893;51.698;-0.292;2023-09-07T02:28:33;44.50;;;28.45;;
76953;SDS011;65893;51.698;-0.292;2023-09-07T02:31:03;49.97;;;27.90;;
76953;SDS011;65893;51.698;-0.292;2023-09-07T02:33:30;48.33;;;29.77;;
76953;SDS011;65893;51.698;-0.292;2023-09-07T02:35:57;40.70;;;29.23;;
76953;SDS011;65893;51.698;-0.292;2023-09-07T02:38:24;45.38;;;28.10;;
76953;SDS011;65893;51.698;-0.292;2023-09-07T02:40:50;46.05;;;28.38;;
76953;SDS011;65893;51.698;-0.292;2023-09-07T02:43:16;52.60;;;28.70;;
76953;SDS011;65893;51.698;-0.292;2023-09-07T02:45:45;54.83;;;33.40;;
76953;SDS011;65893;51.698;-0.292;2023-09-07T02:48:12;51.97;;;33.13;;
76953;SDS011;65893;51.698;-0.292;2023-09-07T02:50:38;56.67;;;31.33;;
76953;SDS011;65893;51.698;-0.292;2023-09-07T02:53:05;52.35;;;31.65;;
76953;SDS011;65893;51.698;-0.292;2023-09-07T02:55:31;53.25;;;31.02;;
76953;SDS011;65893;51.698;-0.292;2023-09-07T02:57:57;44.95;;;29.80;;
76953;SDS011;65893;51.698;-0.292;2023-09-07T03:00:26;47.50;;;29.90;;
76953;SDS011;65893;51.698;-0.292;2023-09-07T03:02:52;42.80;;;28.85;;
76953;SDS011;65893;51.698;-0.292;2023-09-07T03:05:18;50.95;;;29.80;;
76953;SDS011;65893;51.698;-0.292;2023-09-07T03:07:44;43.47;;;28.05;;
76953;SDS011;65893;51.698;-0.292;2023-09-07T03:10:11;43.17;;;27.85;;
76953;SDS011;65893;51.698;-0.292;2023-09-07T03:12:37;44.10;;;28.80;;
76953;SDS011;65893;51.698;-0.292;2023-09-07T03:15:04;44.97;;;28.70;;
76953;SDS011;65893;51.698;-0.292;2023-09-07T03:17:31;46.95;;;27.98;;
76953;SDS011;65893;51.698;-0.292;2023-09-07T03:19:57;40.67;;;26.60;;
76953;SDS011;65893;51.698;-0.292;2023-09-07T03:22:23;42.15;;;26.45;;
76953;SDS011;65893;51.698;-0.292;2023-09-07T03:24:52;46.17;;;27.98;;
76953;SDS011;65893;51.698;-0.292;2023-09-07T03:27:18;51.05;;;28.13;;
76953;SDS011;65893;51.698;-0.292;2023-09-07T03:29:46;40.65;;;25.92;;
76953;SDS011;65893;51.698;-0.292;2023-09-07T03:32:12;45.05;;;27.90;;
76953;SDS011;65893;51.698;-0.292;2023-09-07T03:34:38;46.47;;;28.60;;
76953;SDS011;65893;51.698;-0.292;2023-09-07T03:37:04;46.58;;;28.63;;
76953;SDS011;65893;51.698;-0.292;2023-09-07T03:39:31;44.22;;;27.73;;
76953;SDS011;65893;51.698;-0.292;2023-09-07T03:41:57;44.92;;;26.25;;
76953;SDS011;65893;51.698;-0.292;2023-09-07T03:44:23;50.15;;;26.58;;
76953;SDS011;65893;51.698;-0.292;2023-09-07T03:46:49;49.50;;;30.30;;
76953;SDS011;65893;51.698;-0.292;2023-09-07T03:49:15;46.38;;;27.20;;
76953;SDS011;65893;51.698;-0.292;2023-09-07T03:51:41;48.25;;;29.58;;
76953;SDS011;65893;51.698;-0.292;2023-09-07T03:54:07;42.38;;;29.80;;
76953;SDS011;65893;51.698;-0.292;2023-09-07T03:56:33;45.95;;;27.63;;
76953;SDS011;65893;51.698;-0.292;2023-09-07T03:58:59;52.92;;;28.65;;
76953;SDS011;65893;51.698;-0.292;2023-09-07T04:01:25;50.90;;;29.13;;
76953;SDS011;65893;51.698;-0.292;2023-09-07T04:03:51;48.42;;;28.25;;
76953;SDS011;65893;51.698;-0.292;2023-09-07T04:06:17;47.10;;;28.73;;
76953;SDS011;65893;51.698;-0.292;2023-09-07T04:08:44;49.63;;;29.20;;
76953;SDS011;65893;51.698;-0.292;2023-09-07T04:11:12;56.22;;;32.35;;
76953;SDS011;65893;51.698;-0.292;2023-09-07T04:13:38;45.33;;;29.42;;
76953;SDS011;65893;51.698;-0.292;2023-09-07T04:16:04;47.17;;;30.73;;
76953;SDS011;65893;51.698;-0.292;2023-09-07T04:18:30;50.95;;;32.13;;
76953;SDS011;65893;51.698;-0.292;2023-09-07T04:21:06;45.28;;;29.67;;
76953;SDS011;65893;51.698;-0.292;2023-09-07T04:23:32;50.17;;;31.88;;
76953;SDS011;65893;51.698;-0.292;2023-09-07T04:26:08;53.25;;;32.13;;
76953;SDS011;65893;51.698;-0.292;2023-09-07T04:28:35;55.92;;;31.38;;
76953;SDS011;65893;51.698;-0.292;2023-09-07T04:31:01;50.72;;;33.17;;
76953;SDS011;65893;51.698;-0.292;2023-09-07T04:33:34;46.33;;;29.15;;
76953;SDS011;65893;51.698;-0.292;2023-09-07T04:36:10;51.22;;;33.25;;
76953;SDS011;65893;51.698;-0.292;2023-09-07T04:38:36;51.60;;;32.03;;
76953;SDS011;65893;51.698;-0.292;2023-09-07T04:41:09;54.15;;;32.17;;
76953;SDS011;65893;51.698;-0.292;2023-09-07T04:43:35;54.90;;;31.13;;
76953;SDS011;65893;51.698;-0.292;2023-09-07T04:46:02;51.40;;;33.35;;
76953;SDS011;65893;51.698;-0.292;2023-09-07T04:48:28;60.75;;;33.95;;
76953;SDS011;65893;51.698;-0.292;2023-09-07T04:50:58;49.90;;;32.05;;
76953;SDS011;65893;51.698;-0.292;2023-09-07T04:53:24;56.20;;;33.55;;
76953;SDS011;65893;51.698;-0.292;2023-09-07T04:55:51;54.97;;;34.47;;
76953;SDS011;65893;51.698;-0.292;2023-09-07T04:58:17;58.45;;;34.28;;
76953;SDS011;65893;51.698;-0.292;2023-09-07T05:00:43;52.25;;;31.10;;
76953;SDS011;65893;51.698;-0.292;2023-09-07T05:03:09;55.22;;;34.38;;
76953;SDS011;65893;51.698;-0.292;2023-09-07T05:08:05;55.97;;;34.70;;
76953;SDS011;65893;51.698;-0.292;2023-09-07T05:10:34;54.92;;;35.05;;
76953;SDS011;65893;51.698;-0.292;2023-09-07T05:13:00;52.15;;;34.85;;
76953;SDS011;65893;51.698;-0.292;2023-09-07T05:15:26;52.72;;;34.20;;
76953;SDS011;65893;51.698;-0.292;2023-09-07T05:17:55;56.35;;;35.72;;
76953;SDS011;65893;51.698;-0.292;2023-09-07T05:20:29;55.13;;;35.80;;
76953;SDS011;65893;51.698;-0.292;2023-09-07T05:22:56;51.47;;;33.65;;
76953;SDS011;65893;51.698;-0.292;2023-09-07T05:25:24;57.83;;;37.30;;
76953;SDS011;65893;51.698;-0.292;2023-09-07T05:27:51;60.22;;;36.08;;
76953;SDS011;65893;51.698;-0.292;2023-09-07T05:30:18;57.47;;;37.53;;
76953;SDS011;65893;51.698;-0.292;2023-09-07T05:32:45;60.85;;;37.00;;
76953;SDS011;65893;51.698;-0.292;2023-09-07T05:35:11;53.97;;;37.10;;
76953;SDS011;65893;51.698;-0.292;2023-09-07T05:37:37;58.15;;;35.80;;
76953;SDS011;65893;51.698;-0.292;2023-09-07T05:40:03;57.95;;;34.58;;
76953;SDS011;65893;51.698;-0.292;2023-09-07T05:42:29;61.40;;;34.65;;
76953;SDS011;65893;51.698;-0.292;2023-09-07T05:44:55;47.20;;;30.15;;
76953;SDS011;65893;51.698;-0.292;2023-09-07T05:47:23;51.33;;;28.73;;
76953;SDS011;65893;51.698;-0.292;2023-09-07T05:49:51;48.15;;;31.17;;
76953;SDS011;65893;51.698;-0.292;2023-09-07T05:52:17;50.35;;;30.25;;
76953;SDS011;65893;51.698;-0.292;2023-09-07T05:54:43;50.28;;;30.00;;
76953;SDS011;65893;51.698;-0.292;2023-09-07T05:57:09;51.17;;;30.75;;
76953;SDS011;65893;51.698;-0.292;2023-09-07T05:59:35;48.33;;;29.25;;
76953;SDS011;65893;51.698;-0.292;2023-09-07T06:02:03;48.63;;;30.75;;
76953;SDS011;65893;51.698;-0.292;2023-09-07T06:04:29;47.65;;;30.92;;
76953;SDS011;65893;51.698;-0.292;2023-09-07T06:06:55;48.25;;;29.27;;
76953;SDS011;65893;51.698;-0.292;2023-09-07T06:09:24;47.30;;;29.98;;
76953;SDS011;65893;51.698;-0.292;2023-09-07T06:11:50;47.92;;;30.17;;
76953;SDS011;65893;51.698;-0.292;2023-09-07T06:16:47;54.47;;;30.38;;
76953;SDS011;65893;51.698;-0.292;2023-09-07T06:19:14;45.38;;;28.88;;
76953;SDS011;65893;51.698;-0.292;2023-09-07T06:21:40;50.88;;;30.92;;
76953;SDS011;65893;51.698;-0.292;2023-09-07T06:24:06;45.55;;;28.95;;
76953;SDS011;65893;51.698;-0.292;2023-09-07T06:26:34;48.97;;;30.30;;
76953;SDS011;65893;51.698;-0.292;2023-09-07T06:29:02;41.83;;;28.35;;
76953;SDS011;65893;51.698;-0.292;2023-09-07T06:31:28;47.90;;;27.95;;
76953;SDS011;65893;51.698;-0.292;2023-09-07T06:33:54;42.65;;;28.10;;
76953;SDS011;65893;51.698;-0.292;2023-09-07T06:36:20;43.28;;;29.52;;
76953;SDS011;65893;51.698;-0.292;2023-09-07T06:38:52;44.17;;;28.88;;
76953;SDS011;65893;51.698;-0.292;2023-09-07T06:41:19;48.28;;;29.92;;
76953;SDS011;65893;51.698;-0.292;2023-09-07T06:43:45;44.90;;;27.80;;
76953;SDS011;65893;51.698;-0.292;2023-09-07T06:46:11;41.85;;;27.52;;
76953;SDS011;65893;51.698;-0.292;2023-09-07T06:48:37;45.20;;;25.73;;
76953;SDS011;65893;51.698;-0.292;2023-09-07T06:51:03;45.13;;;27.77;;
76953;SDS011;65893;51.698;-0.292;2023-09-07T06:53:29;41.47;;;27.02;;
76953;SDS011;65893;51.698;-0.292;2023-09-07T06:56:01;46.42;;;28.17;;
76953;SDS011;65893;51.698;-0.292;2023-09-07T06:58:27;42.17;;;28.15;;
76953;SDS011;65893;51.698;-0.292;2023-09-07T07:00:57;46.50;;;28.25;;
76953;SDS011;65893;51.698;-0.292;2023-09-07T07:03:26;42.67;;;26.65;;
76953;SDS011;65893;51.698;-0.292;2023-09-07T07:05:52;45.28;;;24.92;;
76953;SDS011;65893;51.698;-0.292;2023-09-07T07:08:21;41.45;;;26.63;;
76953;SDS011;65893;51.698;-0.292;2023-09-07T07:10:49;42.53;;;26.17;;
76953;SDS011;65893;51.698;-0.292;2023-09-07T07:13:15;40.83;;;25.35;;
76953;SDS011;65893;51.698;-0.292;2023-09-07T07:15:42;39.65;;;24.70;;
76953;SDS011;65893;51.698;-0.292;2023-09-07T07:18:08;41.53;;;25.58;;
76953;SDS011;65893;51.698;-0.292;2023-09-07T07:20:38;38.88;;;24.40;;
76953;SDS011;65893;51.698;-0.292;2023-09-07T07:23:04;36.38;;;23.48;;
76953;SDS011;65893;51.698;-0.292;2023-09-07T07:25:41;32.38;;;21.83;;
76953;SDS011;65893;51.698;-0.292;2023-09-07T07:28:08;37.20;;;21.88;;
76953;SDS011;65893;51.698;-0.292;2023-09-07T07:30:36;31.45;;;19.70;;
76953;SDS011;65893;51.698;-0.292;2023-09-07T07:33:03;35.35;;;20.27;;
76953;SDS011;65893;51.698;-0.292;2023-09-07T07:35:32;35.42;;;19.17;;
76953;SDS011;65893;51.698;-0.292;2023-09-07T07:38:00;34.05;;;21.38;;
76953;SDS011;65893;51.698;-0.292;2023-09-07T07:40:26;31.77;;;20.45;;
76953;SDS011;65893;51.698;-0.292;2023-09-07T07:42:53;31.95;;;20.45;;
76953;SDS011;65893;51.698;-0.292;2023-09-07T07:45:19;36.30;;;20.30;;
76953;SDS011;65893;51.698;-0.292;2023-09-07T07:47:46;31.35;;;18.40;;
76953;SDS011;65893;51.698;-0.292;2023-09-07T07:50:14;29.73;;;19.42;;
76953;SDS011;65893;51.698;-0.292;2023-09-07T07:52:40;32.15;;;18.35;;
76953;SDS011;65893;51.698;-0.292;2023-09-07T07:55:06;31.75;;;18.75;;
76953;SDS011;65893;51.698;-0.292;2023-09-07T07:57:35;25.90;;;16.75;;
76953;SDS011;65893;51.698;-0.292;2023-09-07T08:00:01;29.58;;;17.27;;
76953;SDS011;65893;51.698;-0.292;2023-09-07T08:02:29;28.80;;;17.33;;
76953;SDS011;65893;51.698;-0.292;2023-09-07T08:04:55;28.70;;;17.80;;
76953;SDS011;65893;51.698;-0.292;2023-09-07T08:07:21;28.15;;;16.92;;
76953;SDS011;65893;51.698;-0.292;2023-09-07T08:09:47;35.45;;;19.23;;
76953;SDS011;65893;51.698;-0.292;2023-09-07T08:12:13;29.52;;;18.80;;
76953;SDS011;65893;51.698;-0.292;2023-09-07T08:14:50;31.33;;;18.33;;
76953;SDS011;65893;51.698;-0.292;2023-09-07T08:17:17;36.15;;;21.80;;
76953;SDS011;65893;51.698;-0.292;2023-09-07T08:19:46;31.13;;;20.35;;
76953;SDS011;65893;51.698;-0.292;2023-09-07T08:22:16;32.88;;;20.13;;
76953;SDS011;65893;51.698;-0.292;2023-09-07T08:24:42;35.67;;;19.88;;
76953;SDS011;65893;51.698;-0.292;2023-09-07T08:27:09;31.58;;;19.08;;
76953;SDS011;65893;51.698;-0.292;2023-09-07T08:29:36;33.05;;;19.15;;
76953;SDS011;65893;51.698;-0.292;2023-09-07T08:32:04;28.23;;;18.05;;
76953;SDS011;65893;51.698;-0.292;2023-09-07T08:34:30;32.15;;;17.23;;
76953;SDS011;65893;51.698;-0.292;2023-09-07T08:36:58;26.83;;;17.25;;
76953;SDS011;65893;51.698;-0.292;2023-09-07T08:39:29;29.60;;;16.75;;
76953;SDS011;65893;51.698;-0.292;2023-09-07T08:41:56;29.73;;;17.55;;
76953;SDS011;65893;51.698;-0.292;2023-09-07T08:44:23;27.75;;;16.48;;
76953;SDS011;65893;51.698;-0.292;2023-09-07T08:47:07;25.60;;;13.45;;
76953;SDS011;65893;51.698;-0.292;2023-09-07T08:49:37;22.17;;;14.57;;
76953;SDS011;65893;51.698;-0.292;2023-09-07T08:54:33;22.88;;;14.77;;
76953;SDS011;65893;51.698;-0.292;2023-09-07T08:57:02;26.95;;;15.18;;
76953;SDS011;65893;51.698;-0.292;2023-09-07T08:59:29;19.73;;;12.65;;
76953;SDS011;65893;51.698;-0.292;2023-09-07T09:01:56;19.80;;;12.02;;
76953;SDS011;65893;51.698;-0.292;2023-09-07T09:04:23;25.70;;;13.27;;
76953;SDS011;65893;51.698;-0.292;2023-09-07T09:06:49;20.83;;;12.73;;
76953;SDS011;65893;51.698;-0.292;2023-09-07T09:09:23;23.33;;;12.93;;
76953;SDS011;65893;51.698;-0.292;2023-09-07T09:11:52;20.75;;;12.93;;
76953;SDS011;65893;51.698;-0.292;2023-09-07T09:14:18;28.73;;;12.68;;
76953;SDS011;65893;51.698;-0.292;2023-09-07T09:16:51;20.38;;;10.13;;
76953;SDS011;65893;51.698;-0.292;2023-09-07T09:19:17;19.08;;;11.75;;
76953;SDS011;65893;51.698;-0.292;2023-09-07T09:21:44;25.42;;;10.77;;
76953;SDS011;65893;51.698;-0.292;2023-09-07T09:24:10;21.52;;;12.05;;
76953;SDS011;65893;51.698;-0.292;2023-09-07T09:26:37;17.77;;;10.35;;
76953;SDS011;65893;51.698;-0.292;2023-09-07T09:29:03;21.73;;;11.60;;
76953;SDS011;65893;51.698;-0.292;2023-09-07T09:31:29;16.98;;;10.35;;
76953;SDS011;65893;51.698;-0.292;2023-09-07T09:33:57;20.70;;;13.30;;
76953;SDS011;65893;51.698;-0.292;2023-09-07T09:36:23;23.10;;;12.00;;
76953;SDS011;65893;51.698;-0.292;2023-09-07T09:38:51;20.60;;;10.45;;
76953;SDS011;65893;51.698;-0.292;2023-09-07T09:41:19;15.90;;;9.70;;
76953;SDS011;65893;51.698;-0.292;2023-09-07T09:43:46;14.57;;;9.43;;
76953;SDS011;65893;51.698;-0.292;2023-09-07T09:46:17;17.05;;;10.55;;
76953;SDS011;65893;51.698;-0.292;2023-09-07T09:48:44;17.33;;;10.88;;
76953;SDS011;65893;51.698;-0.292;2023-09-07T09:51:11;20.30;;;10.63;;
76953;SDS011;65893;51.698;-0.292;2023-09-07T09:53:38;20.17;;;12.82;;
76953;SDS011;65893;51.698;-0.292;2023-09-07T09:56:04;21.15;;;11.07;;
76953;SDS011;65893;51.698;-0.292;2023-09-07T09:58:32;19.88;;;10.13;;
76953;SDS011;65893;51.698;-0.292;2023-09-07T10:00:59;12.77;;;8.02;;
76953;SDS011;65893;51.698;-0.292;2023-09-07T10:03:32;16.45;;;8.82;;
76953;SDS011;65893;51.698;-0.292;2023-09-07T10:06:17;18.50;;;11.52;;
76953;SDS011;65893;51.698;-0.292;2023-09-07T10:11:29;16.52;;;7.90;;
76953;SDS011;65893;51.698;-0.292;2023-09-07T10:13:59;14.95;;;9.18;;
76953;SDS011;65893;51.698;-0.292;2023-09-07T10:16:25;16.35;;;8.98;;
76953;SDS011;65893;51.698;-0.292;2023-09-07T10:18:54;16.27;;;9.38;;
76953;SDS011;65893;51.698;-0.292;2023-09-07T10:21:24;15.05;;;7.47;;
76953;SDS011;65893;51.698;-0.292;2023-09-07T10:23:54;14.50;;;8.15;;
76953;SDS011;65893;51.698;-0.292;2023-09-07T10:26:21;15.13;;;8.40;;
76953;SDS011;65893;51.698;-0.292;2023-09-07T10:28:47;12.25;;;6.75;;
76953;SDS011;65893;51.698;-0.292;2023-09-07T10:31:24;14.05;;;9.15;;
76953;SDS011;65893;51.698;-0.292;2023-09-07T10:33:51;14.32;;;8.98;;
76953;SDS011;65893;51.698;-0.292;2023-09-07T10:36:21;12.55;;;6.95;;
76953;SDS011;65893;51.698;-0.292;2023-09-07T10:38:49;15.95;;;6.10;;
76953;SDS011;65893;51.698;-0.292;2023-09-07T10:41:18;10.45;;;5.20;;
76953;SDS011;65893;51.698;-0.292;2023-09-07T10:46:19;11.20;;;5.57;;
76953;SDS011;65893;51.698;-0.292;2023-09-07T10:48:53;11.85;;;5.28;;
76953;SDS011;65893;51.698;-0.292;2023-09-07T10:51:21;11.80;;;4.78;;
76953;SDS011;65893;51.698;-0.292;2023-09-07T10:53:48;9.55;;;4.63;;
76953;SDS011;65893;51.698;-0.292;2023-09-07T10:56:16;11.18;;;5.47;;
76953;SDS011;65893;51.698;-0.292;2023-09-07T10:58:42;12.35;;;5.22;;
76953;SDS011;65893;51.698;-0.292;2023-09-07T11:01:09;11.50;;;5.03;;
76953;SDS011;65893;51.698;-0.292;2023-09-07T11:03:36;10.95;;;5.57;;
76953;SDS011;65893;51.698;-0.292;2023-09-07T11:06:10;12.32;;;7.72;;
76953;SDS011;65893;51.698;-0.292;2023-09-07T11:08:38;11.60;;;6.00;;
76953;SDS011;65893;51.698;-0.292;2023-09-07T11:11:04;12.98;;;4.65;;
76953;SDS011;65893;51.698;-0.292;2023-09-07T11:13:33;9.80;;;4.60;;
76953;SDS011;65893;51.698;-0.292;2023-09-07T11:16:00;11.18;;;4.63;;
76953;SDS011;65893;51.698;-0.292;2023-09-07T11:18:27;11.73;;;5.32;;
76953;SDS011;65893;51.698;-0.292;2023-09-07T11:20:54;10.57;;;4.30;;
76953;SDS011;65893;51.698;-0.292;2023-09-07T11:23:41;10.10;;;5.20;;
76953;SDS011;65893;51.698;-0.292;2023-09-07T11:26:13;11.65;;;5.22;;
76953;SDS011;65893;51.698;-0.292;2023-09-07T11:28:52;11.00;;;4.53;;
76953;SDS011;65893;51.698;-0.292;2023-09-07T11:31:24;11.18;;;5.07;;
76953;SDS011;65893;51.698;-0.292;2023-09-07T11:33:51;10.98;;;6.00;;
76953;SDS011;65893;51.698;-0.292;2023-09-07T11:36:17;10.85;;;5.32;;
76953;SDS011;65893;51.698;-0.292;2023-09-07T11:41:17;11.35;;;5.90;;
76953;SDS011;65893;51.698;-0.292;2023-09-07T11:43:43;11.23;;;5.32;;
76953;SDS011;65893;51.698;-0.292;2023-09-07T11:46:23;14.82;;;5.25;;
76953;SDS011;65893;51.698;-0.292;2023-09-07T11:48:49;10.30;;;4.90;;
76953;SDS011;65893;51.698;-0.292;2023-09-07T11:51:20;13.85;;;5.53;;
76953;SDS011;65893;51.698;-0.292;2023-09-07T11:53:47;10.45;;;4.50;;
76953;SDS011;65893;51.698;-0.292;2023-09-07T11:56:14;8.60;;;4.57;;
76953;SDS011;65893;51.698;-0.292;2023-09-07T11:58:40;11.18;;;4.43;;
76953;SDS011;65893;51.698;-0.292;2023-09-07T12:01:21;10.38;;;4.50;;
76953;SDS011;65893;51.698;-0.292;2023-09-07T12:03:58;9.07;;;4.78;;
76953;SDS011;65893;51.698;-0.292;2023-09-07T12:06:41;8.07;;;3.70;;
76953;SDS011;65893;51.698;-0.292;2023-09-07T12:09:19;10.45;;;3.88;;
76953;SDS011;65893;51.698;-0.292;2023-09-07T12:11:53;10.20;;;4.22;;
76953;SDS011;65893;51.698;-0.292;2023-09-07T12:14:27;11.43;;;3.42;;
76953;SDS011;65893;51.698;-0.292;2023-09-07T12:17:00;7.65;;;3.60;;
76953;SDS011;65893;51.698;-0.292;2023-09-07T12:19:26;9.10;;;3.10;;
76953;SDS011;65893;51.698;-0.292;2023-09-07T12:21:55;8.05;;;3.28;;
76953;SDS011;65893;51.698;-0.292;2023-09-07T12:24:21;8.82;;;3.17;;
76953;SDS011;65893;51.698;-0.292;2023-09-07T12:26:50;9.27;;;3.50;;
76953;SDS011;65893;51.698;-0.292;2023-09-07T12:29:17;9.50;;;4.78;;
76953;SDS011;65893;51.698;-0.292;2023-09-07T12:31:52;9.02;;;3.72;;
76953;SDS011;65893;51.698;-0.292;2023-09-07T12:34:55;8.35;;;3.70;;
76953;SDS011;65893;51.698;-0.292;2023-09-07T12:37:26;6.95;;;2.88;;
76953;SDS011;65893;51.698;-0.292;2023-09-07T12:39:54;6.85;;;3.72;;
76953;SDS011;65893;51.698;-0.292;2023-09-07T12:42:23;9.50;;;4.20;;
76953;SDS011;65893;51.698;-0.292;2023-09-07T12:44:52;9.38;;;4.90;;
76953;SDS011;65893;51.698;-0.292;2023-09-07T12:47:21;12.85;;;4.88;;
76953;SDS011;65893;51.698;-0.292;2023-09-07T12:50:05;9.27;;;4.25;;
76953;SDS011;65893;51.698;-0.292;2023-09-07T12:52:34;14.10;;;4.90;;
76953;SDS011;65893;51.698;-0.292;2023-09-07T12:55:06;13.45;;;3.70;;
76953;SDS011;65893;51.698;-0.292;2023-09-07T12:57:34;12.05;;;4.32;;
76953;SDS011;65893;51.698;-0.292;2023-09-07T13:00:07;8.95;;;3.88;;
76953;SDS011;65893;51.698;-0.292;2023-09-07T13:02:35;8.15;;;4.10;;
76953;SDS011;65893;51.698;-0.292;2023-09-07T13:05:02;9.43;;;4.38;;
76953;SDS011;65893;51.698;-0.292;2023-09-07T13:07:31;10.30;;;4.95;;
76953;SDS011;65893;51.698;-0.292;2023-09-07T13:09:58;9.23;;;4.47;;
76953;SDS011;65893;51.698;-0.292;2023-09-07T13:12:27;9.75;;;4.47;;
76953;SDS011;65893;51.698;-0.292;2023-09-07T13:14:53;8.15;;;4.82;;
76953;SDS011;65893;51.698;-0.292;2023-09-07T13:17:22;8.30;;;4.60;;
76953;SDS011;65893;51.698;-0.292;2023-09-07T13:19:50;9.05;;;3.97;;
76953;SDS011;65893;51.698;-0.292;2023-09-07T13:22:28;8.85;;;4.00;;
76953;SDS011;65893;51.698;-0.292;2023-09-07T13:24:58;9.15;;;4.40;;
76953;SDS011;65893;51.698;-0.292;2023-09-07T13:27:27;8.38;;;4.40;;
76953;SDS011;65893;51.698;-0.292;2023-09-07T13:29:53;11.55;;;4.47;;
76953;SDS011;65893;51.698;-0.292;2023-09-07T13:32:21;7.57;;;4.35;;
76953;SDS011;65893;51.698;-0.292;2023-09-07T13:34:51;9.30;;;5.00;;
76953;SDS011;65893;51.698;-0.292;2023-09-07T13:37:23;8.88;;;4.10;;
76953;SDS011;65893;51.698;-0.292;2023-09-07T13:39:56;8.05;;;4.22;;
76953;SDS011;65893;51.698;-0.292;2023-09-07T13:42:24;10.20;;;4.28;;
76953;SDS011;65893;51.698;-0.292;2023-09-07T13:44:52;11.75;;;4.07;;
76953;SDS011;65893;51.698;-0.292;2023-09-07T13:47:21;8.73;;;4.20;;
76953;SDS011;65893;51.698;-0.292;2023-09-07T13:50:01;6.65;;;4.10;;
76953;SDS011;65893;51.698;-0.292;2023-09-07T13:52:28;10.02;;;3.75;;
76953;SDS011;65893;51.698;-0.292;2023-09-07T13:55:02;8.93;;;4.05;;
76953;SDS011;65893;51.698;-0.292;2023-09-07T13:57:29;11.68;;;4.88;;
76953;SDS011;65893;51.698;-0.292;2023-09-07T13:59:55;8.50;;;3.88;;
76953;SDS011;65893;51.698;-0.292;2023-09-07T14:02:25;8.23;;;3.70;;
76953;SDS011;65893;51.698;-0.292;2023-09-07T14:04:57;8.30;;;3.30;;
76953;SDS011;65893;51.698;-0.292;2023-09-07T14:07:39;8.02;;;3.80;;
76953;SDS011;65893;51.698;-0.292;2023-09-07T14:10:05;8.27;;;3.55;;
76953;SDS011;65893;51.698;-0.292;2023-09-07T14:12:31;7.65;;;3.60;;
76953;SDS011;65893;51.698;-0.292;2023-09-07T14:15:04;7.55;;;3.70;;
76953;SDS011;65893;51.698;-0.292;2023-09-07T14:17:33;8.35;;;3.50;;
76953;SDS011;65893;51.698;-0.292;2023-09-07T14:19:59;10.25;;;4.15;;
76953;SDS011;65893;51.698;-0.292;2023-09-07T14:22:29;10.02;;;4.70;;
76953;SDS011;65893;51.698;-0.292;2023-09-07T14:24:57;8.38;;;4.00;;
76953;SDS011;65893;51.698;-0.292;2023-09-07T14:27:31;9.57;;;3.63;;
76953;SDS011;65893;51.698;-0.292;2023-09-07T14:29:58;7.32;;;3.78;;
76953;SDS011;65893;51.698;-0.292;2023-09-07T14:32:26;8.68;;;3.20;;
76953;SDS011;65893;51.698;-0.292;2023-09-07T14:34:55;9.48;;;4.03;;